Syosyun — JD2406 — position and weather

sailwx.info

Track history (hours):
 
Tides and Currents Weather Stations Pressure Air Temp Water Temp Dewpoint Dewpoint Depression Visibility Wind Speed Wind Dir Waves Ship Positions

Syosyun

Last reported at 2014-Sep-30 17:08 UTC. Time now 2014-Oct-01 22:22 UTC.
Position N 35°01' E 139°44'.

Length 74 m; draft 4.8 m.

Type: Cargo ship. MMSI: 431000201.

Date/timePositionNaut miles runAvg speedWind from/ knotsBaromVisibWave heightAir tempDewpointWater temp
2014-Sep-30 17:08N 35°01' E 139°44'1010.9
2014-Sep-30 16:14N 35°10' E 139°46'710.8
2014-Sep-30 15:34N 35°18' E 139°45'5 4.5
2014-Sep-30 14:29N 35°20' E 139°40'0 0.0
2014-Sep-30 13:32N 35°20' E 139°40'0 0.0
2014-Sep-30 12:32N 35°20' E 139°40'0 0.0
2014-Sep-30 11:29N 35°20' E 139°40'0 0.0
2014-Sep-30 10:32N 35°21' E 139°40'0 0.0
2014-Sep-30 09:32N 35°21' E 139°40'0 0.0
2014-Sep-30 08:29N 35°21' E 139°40'0 0.1
2014-Sep-30 07:32N 35°21' E 139°40'0 0.0
2014-Sep-30 06:32N 35°21' E 139°40'0 0.0
2014-Sep-30 05:32N 35°21' E 139°40'0 0.0
2014-Sep-30 04:32N 35°20' E 139°40'0 0.0
2014-Sep-30 03:32N 35°20' E 139°40'0 0.0
2014-Sep-30 02:32N 35°20' E 139°40'0 0.0
2014-Sep-30 01:29N 35°20' E 139°40'0 0.0
2014-Sep-30 00:32N 35°20' E 139°40'0 0.0
2014-Sep-29 23:32N 35°20' E 139°40'0 0.0
2014-Sep-29 22:32N 35°20' E 139°40'0 0.0
2014-Sep-29 21:32N 35°21' E 139°40'0 0.0
2014-Sep-29 20:32N 35°21' E 139°40'0 0.0
2014-Sep-29 19:29N 35°21' E 139°40'0 0.1
2014-Sep-29 18:32N 35°21' E 139°40'0 0.0
2014-Sep-29 17:32N 35°21' E 139°40'0 0.0
2014-Sep-29 16:32N 35°21' E 139°40'0 0.1
2014-Sep-29 15:32N 35°20' E 139°40'0 0.0
2014-Sep-29 14:32N 35°20' E 139°40'0 0.0
2014-Sep-29 13:29N 35°21' E 139°40'0 0.0
2014-Sep-29 12:29N 35°21' E 139°40'0 0.0
2014-Sep-29 11:32N 35°21' E 139°40'0 0.0
2014-Sep-29 10:32N 35°21' E 139°40'0 0.0
2014-Sep-29 09:32N 35°21' E 139°40'0 0.0
2014-Sep-29 08:32N 35°21' E 139°40'10 0.5
2014-Sep-28 13:28N 35°21' E 139°51'0 0.0
2014-Sep-28 12:31N 35°21' E 139°51'0 0.0
2014-Sep-28 11:16N 35°21' E 139°51'0 0.0
2014-Sep-28 07:28N 35°21' E 139°51'0 0.0
2014-Sep-28 06:31N 35°21' E 139°51'0 0.0
2014-Sep-28 02:04N 35°21' E 139°51'0 0.0
2014-Sep-28 00:25N 35°21' E 139°51'0 0.0
2014-Sep-27 23:28N 35°21' E 139°51'0 0.0
2014-Sep-27 22:16N 35°21' E 139°51'0 0.0
2014-Sep-27 21:28N 35°21' E 139°51'0 0.0
2014-Sep-27 20:25N 35°21' E 139°51'0 0.0
2014-Sep-27 19:19N 35°21' E 139°51'0 0.0
2014-Sep-27 18:25N 35°21' E 139°51'0 0.0
2014-Sep-27 16:04N 35°21' E 139°51'0 0.0
2014-Sep-27 15:31N 35°21' E 139°51'0 0.0
2014-Sep-27 14:19N 35°21' E 139°51'0 0.0
2014-Sep-27 12:28N 35°21' E 139°51'0 0.1
2014-Sep-27 08:33N 35°21' E 139°51'8 0.9
2014-Sep-26 23:33N 35°30' E 139°49'1110.8
2014-Sep-26 22:33N 35°20' E 139°44'13 9.8
2014-Sep-26 21:11N 35°07' E 139°43'  
Track history (hours):
 
Tides and Currents Weather Stations Pressure Air Temp Water Temp Dewpoint Dewpoint Depression Visibility Wind Speed Wind Dir Waves Ship Positions

Syosyun

Last reported at 2014-Sep-30 17:08 UTC. Time now 2014-Oct-01 22:22 UTC.
Position N 35°01' E 139°44'.

Length 74 m; draft 4.8 m.

Type: Cargo ship. MMSI: 431000201.

Date/timePositionNaut miles runAvg speedWind from/ knotsBaromVisibWave heightAir tempDewpointWater temp
2014-Sep-30 17:08N 35°01' E 139°44'1010.9
2014-Sep-30 16:14N 35°10' E 139°46'710.8
2014-Sep-30 15:34N 35°18' E 139°45'5 4.5
2014-Sep-30 14:29N 35°20' E 139°40'0 0.0
2014-Sep-30 13:32N 35°20' E 139°40'0 0.0
2014-Sep-30 12:32N 35°20' E 139°40'0 0.0
2014-Sep-30 11:29N 35°20' E 139°40'0 0.0
2014-Sep-30 10:32N 35°21' E 139°40'0 0.0
2014-Sep-30 09:32N 35°21' E 139°40'0 0.0
2014-Sep-30 08:29N 35°21' E 139°40'0 0.1
2014-Sep-30 07:32N 35°21' E 139°40'0 0.0
2014-Sep-30 06:32N 35°21' E 139°40'0 0.0
2014-Sep-30 05:32N 35°21' E 139°40'0 0.0
2014-Sep-30 04:32N 35°20' E 139°40'0 0.0
2014-Sep-30 03:32N 35°20' E 139°40'0 0.0
2014-Sep-30 02:32N 35°20' E 139°40'0 0.0
2014-Sep-30 01:29N 35°20' E 139°40'0 0.0
2014-Sep-30 00:32N 35°20' E 139°40'0 0.0
2014-Sep-29 23:32N 35°20' E 139°40'0 0.0
2014-Sep-29 22:32N 35°20' E 139°40'0 0.0
2014-Sep-29 21:32N 35°21' E 139°40'0 0.0
2014-Sep-29 20:32N 35°21' E 139°40'0 0.0
2014-Sep-29 19:29N 35°21' E 139°40'0 0.1
2014-Sep-29 18:32N 35°21' E 139°40'0 0.0
2014-Sep-29 17:32N 35°21' E 139°40'0 0.0
2014-Sep-29 16:32N 35°21' E 139°40'0 0.1
2014-Sep-29 15:32N 35°20' E 139°40'0 0.0
2014-Sep-29 14:32N 35°20' E 139°40'0 0.0
2014-Sep-29 13:29N 35°21' E 139°40'0 0.0
2014-Sep-29 12:29N 35°21' E 139°40'0 0.0
2014-Sep-29 11:32N 35°21' E 139°40'0 0.0
2014-Sep-29 10:32N 35°21' E 139°40'0 0.0
2014-Sep-29 09:32N 35°21' E 139°40'0 0.0
2014-Sep-29 08:32N 35°21' E 139°40'10 0.5
2014-Sep-28 13:28N 35°21' E 139°51'0 0.0
2014-Sep-28 12:31N 35°21' E 139°51'0 0.0
2014-Sep-28 11:16N 35°21' E 139°51'0 0.0
2014-Sep-28 07:28N 35°21' E 139°51'0 0.0
2014-Sep-28 06:31N 35°21' E 139°51'0 0.0
2014-Sep-28 02:04N 35°21' E 139°51'0 0.0
2014-Sep-28 00:25N 35°21' E 139°51'0 0.0
2014-Sep-27 23:28N 35°21' E 139°51'0 0.0
2014-Sep-27 22:16N 35°21' E 139°51'0 0.0
2014-Sep-27 21:28N 35°21' E 139°51'0 0.0
2014-Sep-27 20:25N 35°21' E 139°51'0 0.0
2014-Sep-27 19:19N 35°21' E 139°51'0 0.0
2014-Sep-27 18:25N 35°21' E 139°51'0 0.0
2014-Sep-27 16:04N 35°21' E 139°51'0 0.0
2014-Sep-27 15:31N 35°21' E 139°51'0 0.0
2014-Sep-27 14:19N 35°21' E 139°51'0 0.0
2014-Sep-27 12:28N 35°21' E 139°51'0 0.1
2014-Sep-27 08:33N 35°21' E 139°51'8 0.9
2014-Sep-26 23:33N 35°30' E 139°49'1110.8
2014-Sep-26 22:33N 35°20' E 139°44'13 9.8
2014-Sep-26 21:11N 35°07' E 139°43'  

Dump ship's entire track history